^^
Datos históricos de la estación: Murcia-Puente Tocinos
Diario Informe para Marzo 16, 2019 Unidades:  Ambas    Inglés   Métrico
Diario Semanal Mensual Anual Configurable
  Máximo: Mínimo: Media:
Temperatura: 79.2 °F /  26.2 °C 49.6 °F /  9.8 °C 63 °F /  17.2 °C
Punto de rocio: 48 °F /  8.9 °C 27.9 °F /  -2.3 °C 37 °F /  2.8 °C
Humedad: 69% 16% 42%
Velocidad viento: 10mph /  16.1km/h - 4.6mph /  7.4km/h
Racha viento: 17.3mph /  27.8km/h - -
Viento- - SSE
Presión: 30.2 in /  1023.5 hPa 30 in /  1016.5 hPa -
Precipitación: 0 in /  0.0 mm    
Historical Graphs
 
 
Tabla de datos para Marzo 16, 2019
Hora Temperatura Punto de rocio Presión Viento Velocidad viento Racha viento Humedad Intensidad lluvia(por hora) Nubes
00:00 57.7 °F /  14.3 °C 40.3 °F /  4.6 °C 30.2in /  1023.5hPa Calm     52% 0in /  0.0mm CLR
00:05 57.7 °F /  14.3 °C 39.7 °F /  4.3 °C 30.2in /  1023.4hPa Calm   2.4mph /  3.9km/h 51% 0in /  0.0mm CLR
00:10 57.6 °F /  14.2 °C 39 °F /  3.9 °C 30.2in /  1023.4hPa Calm     50% 0in /  0.0mm CLR
00:15 57.7 °F /  14.3 °C 38.7 °F /  3.7 °C 30.2in /  1023.4hPa Calm     49% 0in /  0.0mm CLR
00:20 57.9 °F /  14.4 °C 38.3 °F /  3.5 °C 30.2in /  1023.3hPa Calm   5.8mph /  9.3km/h 48% 0in /  0.0mm CLR
00:25 58.1 °F /  14.5 °C 37.9 °F /  3.3 °C 30.2in /  1023.3hPa Calm   3.6mph /  5.8km/h 47% 0in /  0.0mm CLR
00:30 58.3 °F /  14.6 °C 38.1 °F /  3.4 °C 30.2in /  1023.3hPa SW 2.9mph /  4.7km/h 4.6mph /  7.4km/h 47% 0in /  0.0mm CLR
00:35 58.3 °F /  14.6 °C 38.1 °F /  3.4 °C 30.2in /  1023.2hPa SW 2.9mph /  4.7km/h 3.6mph /  5.8km/h 47% 0in /  0.0mm CLR
00:40 58.1 °F /  14.5 °C 37.9 °F /  3.3 °C 30.2in /  1023.2hPa SW 3.1mph /  5.0km/h 4.6mph /  7.4km/h 47% 0in /  0.0mm CLR
00:45 57.7 °F /  14.3 °C 37.6 °F /  3.1 °C 30.2in /  1023.2hPa SW 3.1mph /  5.0km/h 4.6mph /  7.4km/h 47% 0in /  0.0mm CLR
00:50 57.6 °F /  14.2 °C 37.6 °F /  3.1 °C 30.2in /  1023.1hPa SSW 3.1mph /  5.0km/h 5.8mph /  9.3km/h 47% 0in /  0.0mm CLR
00:55 57.6 °F /  14.2 °C 37.6 °F /  3.1 °C 30.2in /  1023.1hPa SSW 3.1mph /  5.0km/h 6.9mph /  11.1km/h 47% 0in /  0.0mm CLR
01:00 57.6 °F /  14.2 °C 37.4 °F /  3.0 °C 30.2in /  1023.1hPa SSW 5mph /  8.0km/h 6mph /  9.7km/h 47% 0in /  0.0mm CLR
01:05 57.4 °F /  14.1 °C 37.2 °F /  2.9 °C 30.2in /  1023.0hPa SSW 4.3mph /  6.9km/h 5.8mph /  9.3km/h 47% 0in /  0.0mm CLR
01:10 57.4 °F /  14.1 °C 37.2 °F /  2.9 °C 30.2in /  1023.0hPa SW 4.3mph /  6.9km/h 6.9mph /  11.1km/h 47% 0in /  0.0mm CLR
01:15 57.2 °F /  14.0 °C 37 °F /  2.8 °C 30.2in /  1023.0hPa SSW 4.3mph /  6.9km/h 8.1mph /  13.0km/h 47% 0in /  0.0mm CLR
01:20 57 °F /  13.9 °C 37 °F /  2.8 °C 30.2in /  1022.8hPa SW 5.2mph /  8.4km/h 6.9mph /  11.1km/h 47% 0in /  0.0mm CLR
01:25 57 °F /  13.9 °C 37 °F /  2.8 °C 30.2in /  1022.8hPa SSW 5.2mph /  8.4km/h 5.8mph /  9.3km/h 47% 0in /  0.0mm CLR
01:30 56.8 °F /  13.8 °C 37.2 °F /  2.9 °C 30.2in /  1022.8hPa SSW 4.7mph /  7.6km/h 5.4mph /  8.7km/h 48% 0in /  0.0mm CLR
01:35 56.7 °F /  13.7 °C 37.2 °F /  2.9 °C 30.2in /  1022.8hPa SSW 4.7mph /  7.6km/h 5.8mph /  9.3km/h 48% 0in /  0.0mm CLR
01:40 56.7 °F /  13.7 °C 37.2 °F /  2.9 °C 30.2in /  1022.8hPa SW 4mph /  6.4km/h 4.6mph /  7.4km/h 48% 0in /  0.0mm CLR
01:45 56.5 °F /  13.6 °C 37 °F /  2.8 °C 30.2in /  1022.8hPa SW 4mph /  6.4km/h 5.8mph /  9.3km/h 48% 0in /  0.0mm CLR
01:50 56.5 °F /  13.6 °C 37 °F /  2.8 °C 30.2in /  1022.7hPa WSW 3.6mph /  5.8km/h 4.6mph /  7.4km/h 48% 0in /  0.0mm CLR
01:55 56.5 °F /  13.6 °C 37 °F /  2.8 °C 30.2in /  1022.7hPa SW 3.6mph /  5.8km/h 5.8mph /  9.3km/h 48% 0in /  0.0mm CLR
02:00 56.5 °F /  13.6 °C 37 °F /  2.8 °C 30.2in /  1022.7hPa SW 3mph /  4.8km/h 6mph /  9.7km/h 48% 0in /  0.0mm CLR
02:05 56.3 °F /  13.5 °C 37.4 °F /  3.0 °C 30.2in /  1022.7hPa SSW 3.6mph /  5.8km/h 4.6mph /  7.4km/h 49% 0in /  0.0mm CLR
02:10 56.1 °F /  13.4 °C 37.2 °F /  2.9 °C 30.2in /  1022.7hPa South 3.6mph /  5.8km/h 5.8mph /  9.3km/h 49% 0in /  0.0mm CLR
02:15 55.9 °F /  13.3 °C 37 °F /  2.8 °C 30.2in /  1022.7hPa South 3.6mph /  5.8km/h 5.9mph /  9.5km/h 49% 0in /  0.0mm CLR
02:20 55.8 °F /  13.2 °C 36.9 °F /  2.7 °C 30.2in /  1022.6hPa SSW 4.3mph /  6.9km/h 5.8mph /  9.3km/h 49% 0in /  0.0mm CLR
02:25 55.8 °F /  13.2 °C 36.9 °F /  2.7 °C 30.2in /  1022.6hPa South 4.3mph /  6.9km/h 6.9mph /  11.1km/h 49% 0in /  0.0mm CLR
02:30 55.8 °F /  13.2 °C 36.9 °F /  2.7 °C 30.2in /  1022.6hPa SSW 4.7mph /  7.6km/h 5.8mph /  9.3km/h 49% 0in /  0.0mm CLR
02:35 55.6 °F /  13.1 °C 36.7 °F /  2.6 °C 30.2in /  1022.5hPa SSW 4.7mph /  7.6km/h 5.8mph /  9.3km/h 49% 0in /  0.0mm CLR
02:40 55.4 °F /  13.0 °C 36.5 °F /  2.5 °C 30.2in /  1022.5hPa SSW 4mph /  6.4km/h 5.8mph /  9.3km/h 49% 0in /  0.0mm CLR
02:45 55.2 °F /  12.9 °C 36.3 °F /  2.4 °C 30.2in /  1022.5hPa SSW 4mph /  6.4km/h 4.6mph /  7.4km/h 49% 0in /  0.0mm CLR
02:50 55.2 °F /  12.9 °C 36.3 °F /  2.4 °C 30.2in /  1022.4hPa SSW 3.6mph /  5.8km/h 4.6mph /  7.4km/h 49% 0in /  0.0mm CLR
02:55 55 °F /  12.8 °C 36.1 °F /  2.3 °C 30.2in /  1022.4hPa SSW 3.6mph /  5.8km/h 5.8mph /  9.3km/h 49% 0in /  0.0mm CLR
03:00 55 °F /  12.8 °C 36.1 °F /  2.3 °C 30.2in /  1022.4hPa SSW 3mph /  4.8km/h 5mph /  8.0km/h 49% 0in /  0.0mm CLR
03:05 54.9 °F /  12.7 °C 36 °F /  2.2 °C 30.2in /  1022.3hPa SW 3.1mph /  5.0km/h 2.3mph /  3.7km/h 49% 0in /  0.0mm CLR
03:10 54.9 °F /  12.7 °C 35.4 °F /  1.9 °C 30.2in /  1022.3hPa SW 2.4mph /  3.9km/h 6.4mph /  10.3km/h 48% 0in /  0.0mm CLR
03:15 54.9 °F /  12.7 °C 35.4 °F /  1.9 °C 30.2in /  1022.3hPa SW 2.4mph /  3.9km/h 5.8mph /  9.3km/h 48% 0in /  0.0mm CLR
03:20 54.7 °F /  12.6 °C 36 °F /  2.2 °C 30.2in /  1022.1hPa WSW 4mph /  6.4km/h 6.9mph /  11.1km/h 49% 0in /  0.0mm CLR
03:25 54.5 °F /  12.5 °C 35.8 °F /  2.1 °C 30.2in /  1022.1hPa SW 4mph /  6.4km/h 5.8mph /  9.3km/h 49% 0in /  0.0mm CLR
03:30 54.3 °F /  12.4 °C 36.1 °F /  2.3 °C 30.2in /  1022.1hPa WSW 4.3mph /  6.9km/h 5.8mph /  9.3km/h 50% 0in /  0.0mm CLR
03:35 54.1 °F /  12.3 °C 36 °F /  2.2 °C 30.2in /  1022.0hPa SW 4.3mph /  6.9km/h 6.9mph /  11.1km/h 50% 0in /  0.0mm CLR
03:40 54.1 °F /  12.3 °C 36 °F /  2.2 °C 30.2in /  1022.0hPa SW 4.7mph /  7.6km/h 4.6mph /  7.4km/h 50% 0in /  0.0mm CLR
03:45 54.1 °F /  12.3 °C 36 °F /  2.2 °C 30.2in /  1022.0hPa SW 4.7mph /  7.6km/h 4.6mph /  7.4km/h 50% 0in /  0.0mm CLR
03:50 54 °F /  12.2 °C 36.1 °F /  2.3 °C 30.2in /  1021.8hPa SSW 2.9mph /  4.7km/h 4.7mph /  7.6km/h 51% 0in /  0.0mm CLR
03:55 53.8 °F /  12.1 °C 36.1 °F /  2.3 °C 30.2in /  1021.8hPa South 2.9mph /  4.7km/h 5.8mph /  9.3km/h 51% 0in /  0.0mm CLR
04:00 53.4 °F /  11.9 °C 36.1 °F /  2.3 °C 30.2in /  1021.8hPa South 3mph /  4.8km/h 6mph /  9.7km/h 52% 0in /  0.0mm CLR
04:05 53.2 °F /  11.8 °C 36.5 °F /  2.5 °C 30.2in /  1021.6hPa SSE 3.6mph /  5.8km/h 4.7mph /  7.6km/h 53% 0in /  0.0mm CLR
04:10 52.9 °F /  11.6 °C 36.7 °F /  2.6 °C 30.2in /  1021.6hPa South 3.1mph /  5.0km/h 5.8mph /  9.3km/h 54% 0in /  0.0mm CLR
04:15 52.5 °F /  11.4 °C 36.9 °F /  2.7 °C 30.2in /  1021.6hPa South 3.1mph /  5.0km/h 4.6mph /  7.4km/h 55% 0in /  0.0mm CLR
04:20 52.3 °F /  11.3 °C 36.7 °F /  2.6 °C 30.2in /  1021.5hPa South 3.6mph /  5.8km/h 3.5mph /  5.6km/h 55% 0in /  0.0mm CLR
04:25 52.2 °F /  11.2 °C 36.5 °F /  2.5 °C 30.2in /  1021.5hPa South 3.6mph /  5.8km/h 5.8mph /  9.3km/h 55% 0in /  0.0mm CLR
04:30 52 °F /  11.1 °C 36.9 °F /  2.7 °C 30.2in /  1021.5hPa South 3.6mph /  5.8km/h 4.6mph /  7.4km/h 56% 0in /  0.0mm CLR
04:35 52 °F /  11.1 °C 36.9 °F /  2.7 °C 30.2in /  1021.6hPa South 3.6mph /  5.8km/h 4.6mph /  7.4km/h 56% 0in /  0.0mm CLR
04:40 51.6 °F /  10.9 °C 36.3 °F /  2.4 °C 30.2in /  1021.6hPa South 3.1mph /  5.0km/h 4.7mph /  7.6km/h 56% 0in /  0.0mm CLR
04:45 51.6 °F /  10.9 °C 36.3 °F /  2.4 °C 30.2in /  1021.6hPa South 3.1mph /  5.0km/h 4.6mph /  7.4km/h 56% 0in /  0.0mm CLR
04:50 51.4 °F /  10.8 °C 36.3 °F /  2.4 °C 30.2in /  1021.6hPa South 3.6mph /  5.8km/h 4.6mph /  7.4km/h 56% 0in /  0.0mm CLR
04:55 51.4 °F /  10.8 °C 36.3 °F /  2.4 °C 30.2in /  1021.6hPa South 3.6mph /  5.8km/h 5.8mph /  9.3km/h 56% 0in /  0.0mm CLR
05:00 51.4 °F /  10.8 °C 36.3 °F /  2.4 °C 30.2in /  1021.6hPa SSE 3mph /  4.8km/h 6mph /  9.7km/h 56% 0in /  0.0mm CLR
05:05 51.3 °F /  10.7 °C 36.1 °F /  2.3 °C 30.2in /  1021.7hPa SSE 3.6mph /  5.8km/h 5.8mph /  9.3km/h 56% 0in /  0.0mm CLR
05:10 51.1 °F /  10.6 °C 36 °F /  2.2 °C 30.2in /  1021.7hPa SSE 4.3mph /  6.9km/h 8.1mph /  13.0km/h 56% 0in /  0.0mm CLR
05:15 50.7 °F /  10.4 °C 36 °F /  2.2 °C 30.2in /  1021.7hPa SSE 4.3mph /  6.9km/h 5.8mph /  9.3km/h 57% 0in /  0.0mm CLR
05:20 50.5 °F /  10.3 °C 36 °F /  2.2 °C 30.2in /  1021.8hPa SSE 5.2mph /  8.4km/h 6.9mph /  11.1km/h 57% 0in /  0.0mm CLR
05:25 50.5 °F /  10.3 °C 36 °F /  2.2 °C 30.2in /  1021.8hPa South 5.2mph /  8.4km/h 6.9mph /  11.1km/h 57% 0in /  0.0mm CLR
05:30 50.5 °F /  10.3 °C 35.4 °F /  1.9 °C 30.2in /  1021.8hPa SSE 4.7mph /  7.6km/h 8.1mph /  13.0km/h 56% 0in /  0.0mm CLR
05:35 50.5 °F /  10.3 °C 35.4 °F /  1.9 °C 30.2in /  1021.9hPa South 4.7mph /  7.6km/h 6.9mph /  11.1km/h 56% 0in /  0.0mm CLR
05:40 50.7 °F /  10.4 °C 35.6 °F /  2.0 °C 30.2in /  1021.9hPa South 5.2mph /  8.4km/h 9.2mph /  14.8km/h 56% 0in /  0.0mm CLR
05:45 50.7 °F /  10.4 °C 35.1 °F /  1.7 °C 30.2in /  1021.9hPa South 5.2mph /  8.4km/h 5.8mph /  9.3km/h 55% 0in /  0.0mm CLR
05:50 50.9 °F /  10.5 °C 35.2 °F /  1.8 °C 30.2in /  1021.9hPa South 4.7mph /  7.6km/h 6.2mph /  10.0km/h 55% 0in /  0.0mm CLR
05:55 51.1 °F /  10.6 °C 35.4 °F /  1.9 °C 30.2in /  1021.9hPa SSW 4.7mph /  7.6km/h 5.8mph /  9.3km/h 55% 0in /  0.0mm CLR
06:00 51.1 °F /  10.6 °C 35.4 °F /  1.9 °C 30.2in /  1021.9hPa SSW 5mph /  8.0km/h 6mph /  9.7km/h 55% 0in /  0.0mm CLR
06:05 51.3 °F /  10.7 °C 35.2 °F /  1.8 °C 30.2in /  1021.8hPa South 4mph /  6.4km/h 5.2mph /  8.4km/h 54% 0in /  0.0mm CLR
06:10 51.3 °F /  10.7 °C 35.2 °F /  1.8 °C 30.2in /  1021.8hPa SSW 4mph /  6.4km/h 6.2mph /  10.0km/h 54% 0in /  0.0mm CLR
06:15 51.4 °F /  10.8 °C 35.2 °F /  1.8 °C 30.2in /  1021.8hPa South 4mph /  6.4km/h 4.6mph /  7.4km/h 54% 0in /  0.0mm CLR
06:20 51.4 °F /  10.8 °C 35.2 °F /  1.8 °C 30.2in /  1021.8hPa SSW 4mph /  6.4km/h 5.8mph /  9.3km/h 54% 0in /  0.0mm CLR
06:25 51.3 °F /  10.7 °C 35.2 °F /  1.8 °C 30.2in /  1021.8hPa SSW 4mph /  6.4km/h 4.6mph /  7.4km/h 54% 0in /  0.0mm CLR
06:30 51.3 °F /  10.7 °C 35.2 °F /  1.8 °C 30.2in /  1021.8hPa SSW 3.6mph /  5.8km/h 4.6mph /  7.4km/h 54% 0in /  0.0mm CLR
06:35 51.3 °F /  10.7 °C 35.2 °F /  1.8 °C 30.2in /  1021.9hPa SSW 3.6mph /  5.8km/h 4.6mph /  7.4km/h 54% 0in /  0.0mm CLR
06:40 51.4 °F /  10.8 °C 35.2 °F /  1.8 °C 30.2in /  1021.9hPa South 3.6mph /  5.8km/h 3.5mph /  5.6km/h 54% 0in /  0.0mm CLR
06:45 51.3 °F /  10.7 °C 35.2 °F /  1.8 °C 30.2in /  1021.9hPa South 3.6mph /  5.8km/h 4.6mph /  7.4km/h 54% 0in /  0.0mm CLR
06:50 51.1 °F /  10.6 °C 35.4 °F /  1.9 °C 30.2in /  1021.9hPa South 3.1mph /  5.0km/h 5.9mph /  9.5km/h 55% 0in /  0.0mm CLR
06:55 50.7 °F /  10.4 °C 35.1 °F /  1.7 °C 30.2in /  1021.9hPa South 3.1mph /  5.0km/h 5.8mph /  9.3km/h 55% 0in /  0.0mm CLR
07:00 50.7 °F /  10.4 °C 35.1 °F /  1.7 °C 30.2in /  1021.9hPa South 5mph /  8.0km/h 7mph /  11.3km/h 55% 0in /  0.0mm CLR
07:05 50.5 °F /  10.3 °C 35.1 °F /  1.7 °C 30.2in /  1021.9hPa South 4.3mph /  6.9km/h 5.8mph /  9.3km/h 55% 0in /  0.0mm CLR
07:10 50.5 °F /  10.3 °C 35.4 °F /  1.9 °C 30.2in /  1021.9hPa South 4.3mph /  6.9km/h 6.9mph /  11.1km/h 56% 0in /  0.0mm CLR
07:15 50.5 °F /  10.3 °C 35.4 °F /  1.9 °C 30.2in /  1021.9hPa SSE 4.3mph /  6.9km/h 6.9mph /  11.1km/h 56% 0in /  0.0mm CLR
07:20 50.4 °F /  10.2 °C 34.9 °F /  1.6 °C 30.2in /  1021.9hPa SSE 5.2mph /  8.4km/h 6.9mph /  11.1km/h 55% 0in /  0.0mm CLR
07:25 50.2 °F /  10.1 °C 35.1 °F /  1.7 °C 30.2in /  1021.9hPa SSE 5.2mph /  8.4km/h 6.9mph /  11.1km/h 56% 0in /  0.0mm CLR
07:30 50 °F /  10.0 °C 34.9 °F /  1.6 °C 30.2in /  1021.9hPa SSE 5.4mph /  8.7km/h 8.1mph /  13.0km/h 56% 0in /  0.0mm CLR
07:35 49.6 °F /  9.8 °C 35.1 °F /  1.7 °C 30.2in /  1021.9hPa SSE 5.4mph /  8.7km/h 6.9mph /  11.1km/h 57% 0in /  0.0mm CLR
07:40 49.6 °F /  9.8 °C 35.1 °F /  1.7 °C 30.2in /  1021.9hPa South 5.4mph /  8.7km/h 6.9mph /  11.1km/h 57% 0in /  0.0mm CLR
07:45 49.8 °F /  9.9 °C 35.2 °F /  1.8 °C 30.2in /  1021.9hPa South 5.4mph /  8.7km/h 6.9mph /  11.1km/h 57% 0in /  0.0mm CLR
07:50 50 °F /  10.0 °C 35.4 °F /  1.9 °C 30.2in /  1022.0hPa SSW 5.2mph /  8.4km/h 6.9mph /  11.1km/h 57% 0in /  0.0mm CLR
07:55 50.2 °F /  10.1 °C 35.1 °F /  1.7 °C 30.2in /  1022.0hPa SSW 5.2mph /  8.4km/h 5.9mph /  9.5km/h 56% 0in /  0.0mm CLR
08:00 50.4 °F /  10.2 °C 35.2 °F /  1.8 °C 30.2in /  1022.0hPa South 5mph /  8.0km/h 7mph /  11.3km/h 56% 0in /  0.0mm CLR
08:05 50.7 °F /  10.4 °C 35.1 °F /  1.7 °C 30.2in /  1022.1hPa South 4.7mph /  7.6km/h 6.9mph /  11.1km/h 55% 0in /  0.0mm CLR
08:10 51.1 °F /  10.6 °C 35.4 °F /  1.9 °C 30.2in /  1022.1hPa South 4.7mph /  7.6km/h 5.8mph /  9.3km/h 55% 0in /  0.0mm CLR
08:15 51.4 °F /  10.8 °C 35.2 °F /  1.8 °C 30.2in /  1022.1hPa South 4.7mph /  7.6km/h 5.2mph /  8.4km/h 54% 0in /  0.0mm CLR
08:20 51.6 °F /  10.9 °C 35.1 °F /  1.7 °C 30.2in /  1022.2hPa South 4mph /  6.4km/h 5.8mph /  9.3km/h 53% 0in /  0.0mm CLR
08:25 52 °F /  11.1 °C 35.4 °F /  1.9 °C 30.2in /  1022.2hPa SSW 4mph /  6.4km/h 5.9mph /  9.5km/h 53% 0in /  0.0mm CLR
08:30 52.3 °F /  11.3 °C 35.2 °F /  1.8 °C 30.2in /  1022.2hPa SSW 4mph /  6.4km/h 5.8mph /  9.3km/h 52% 0in /  0.0mm CLR
08:35 52.5 °F /  11.4 °C 35.4 °F /  1.9 °C 30.2in /  1022.2hPa SW 4mph /  6.4km/h 5.8mph /  9.3km/h 52% 0in /  0.0mm CLR
08:40 52.7 °F /  11.5 °C 35.6 °F /  2.0 °C 30.2in /  1022.2hPa South 4mph /  6.4km/h 5.8mph /  9.3km/h 52% 0in /  0.0mm CLR
08:45 53.1 °F /  11.7 °C 35.4 °F /  1.9 °C 30.2in /  1022.2hPa SSW 4mph /  6.4km/h 6.9mph /  11.1km/h 51% 0in /  0.0mm CLR
08:50 53.1 °F /  11.7 °C 34.9 °F /  1.6 °C 30.2in /  1022.2hPa SSW 5.2mph /  8.4km/h 7.4mph /  11.9km/h 50% 0in /  0.0mm CLR
08:55 53.2 °F /  11.8 °C 35.1 °F /  1.7 °C 30.2in /  1022.2hPa SSW 5.2mph /  8.4km/h 6.9mph /  11.1km/h 50% 0in /  0.0mm CLR
09:00 53.4 °F /  11.9 °C 35.2 °F /  1.8 °C 30.2in /  1022.2hPa SSW 6mph /  9.7km/h 8mph /  12.9km/h 50% 0in /  0.0mm CLR
09:05 53.8 °F /  12.1 °C 35.6 °F /  2.0 °C 30.2in /  1022.3hPa SSW 5.4mph /  8.7km/h 7.4mph /  11.9km/h 50% 0in /  0.0mm CLR
09:10 54.1 °F /  12.3 °C 35.4 °F /  1.9 °C 30.2in /  1022.3hPa SSW 5.2mph /  8.4km/h 5.9mph /  9.5km/h 49% 0in /  0.0mm CLR
09:15 54.7 °F /  12.6 °C 36 °F /  2.2 °C 30.2in /  1022.3hPa South 5.2mph /  8.4km/h 4.6mph /  7.4km/h 49% 0in /  0.0mm CLR
09:20 55 °F /  12.8 °C 36.1 °F /  2.3 °C 30.2in /  1022.3hPa SSW 4.3mph /  6.9km/h 5.8mph /  9.3km/h 49% 0in /  0.0mm CLR
09:25 55.6 °F /  13.1 °C 36.1 °F /  2.3 °C 30.2in /  1022.3hPa South 4.3mph /  6.9km/h 5.4mph /  8.7km/h 48% 0in /  0.0mm CLR
09:30 55.9 °F /  13.3 °C 36 °F /  2.2 °C 30.2in /  1022.3hPa SSE 4.7mph /  7.6km/h 5.8mph /  9.3km/h 47% 0in /  0.0mm CLR
09:35 56.5 °F /  13.6 °C 36 °F /  2.2 °C 30.2in /  1022.5hPa South 4.7mph /  7.6km/h 5.8mph /  9.3km/h 46% 0in /  0.0mm CLR
09:40 57 °F /  13.9 °C 36.3 °F /  2.4 °C 30.2in /  1022.5hPa SSE 4mph /  6.4km/h 4.6mph /  7.4km/h 46% 0in /  0.0mm CLR
09:45 57.6 °F /  14.2 °C 36.3 °F /  2.4 °C 30.2in /  1022.5hPa SW 4mph /  6.4km/h 5.4mph /  8.7km/h 45% 0in /  0.0mm CLR
09:50 57.9 °F /  14.4 °C 36.1 °F /  2.3 °C 30.2in /  1022.4hPa SSW 3.6mph /  5.8km/h 4.7mph /  7.6km/h 44% 0in /  0.0mm CLR
09:55 58.5 °F /  14.7 °C 36 °F /  2.2 °C 30.2in /  1022.4hPa SSW 3.6mph /  5.8km/h 5.8mph /  9.3km/h 43% 0in /  0.0mm CLR
10:00 58.6 °F /  14.8 °C 36.1 °F /  2.3 °C 30.2in /  1022.4hPa SSW 3mph /  4.8km/h 6mph /  9.7km/h 43% 0in /  0.0mm CLR
10:05 59.2 °F /  15.1 °C 36.1 °F /  2.3 °C 30.2in /  1022.4hPa SSW 3.6mph /  5.8km/h 6.9mph /  11.1km/h 42% 0in /  0.0mm CLR
10:10 59.5 °F /  15.3 °C 35.8 °F /  2.1 °C 30.2in /  1022.4hPa South 4mph /  6.4km/h 5.8mph /  9.3km/h 41% 0in /  0.0mm CLR
10:15 60.1 °F /  15.6 °C 36.3 °F /  2.4 °C 30.2in /  1022.4hPa SW 4mph /  6.4km/h 5.8mph /  9.3km/h 41% 0in /  0.0mm CLR
10:20 60.4 °F /  15.8 °C 36 °F /  2.2 °C 30.2in /  1022.3hPa SSW 4mph /  6.4km/h 4.6mph /  7.4km/h 40% 0in /  0.0mm CLR
10:25 61 °F /  16.1 °C 36.5 °F /  2.5 °C 30.2in /  1022.3hPa SW 4mph /  6.4km/h 4.6mph /  7.4km/h 40% 0in /  0.0mm CLR
10:30 61.3 °F /  16.3 °C 36.1 °F /  2.3 °C 30.2in /  1022.3hPa SW 2.9mph /  4.7km/h 4.7mph /  7.6km/h 39% 0in /  0.0mm CLR
10:35 62.2 °F /  16.8 °C 36.3 °F /  2.4 °C 30.2in /  1022.2hPa SSW 2.9mph /  4.7km/h 4.6mph /  7.4km/h 38% 0in /  0.0mm CLR
10:40 63 °F /  17.2 °C 36.3 °F /  2.4 °C 30.2in /  1022.2hPa SSW 2.4mph /  3.9km/h 3.5mph /  5.6km/h 37% 0in /  0.0mm CLR
10:45 63.5 °F /  17.5 °C 36 °F /  2.2 °C 30.2in /  1022.2hPa SSW 2.4mph /  3.9km/h 3.5mph /  5.6km/h 36% 0in /  0.0mm CLR
10:50 63.9 °F /  17.7 °C 35.8 °F /  2.1 °C 30.2in /  1022.1hPa SW 2.9mph /  4.7km/h 5.8mph /  9.3km/h 35% 0in /  0.0mm CLR
10:55 64.4 °F /  18.0 °C 36.1 °F /  2.3 °C 30.2in /  1022.1hPa SE 2.9mph /  4.7km/h 3.5mph /  5.6km/h 35% 0in /  0.0mm CLR
11:00 64.6 °F /  18.1 °C 35.6 °F /  2.0 °C 30.2in /  1022.1hPa SSE 3mph /  4.8km/h 6mph /  9.7km/h 34% 0in /  0.0mm CLR
11:05 65.1 °F /  18.4 °C 36 °F /  2.2 °C 30.2in /  1021.8hPa SW 3.1mph /  5.0km/h 4.6mph /  7.4km/h 34% 0in /  0.0mm CLR
11:10 65.7 °F /  18.7 °C 36.5 °F /  2.5 °C 30.2in /  1021.8hPa SW 2.4mph /  3.9km/h 4.6mph /  7.4km/h 34% 0in /  0.0mm CLR
11:15 66 °F /  18.9 °C 36.1 °F /  2.3 °C 30.2in /  1021.8hPa SSW 2.4mph /  3.9km/h 4.6mph /  7.4km/h 33% 0in /  0.0mm CLR
11:20 66.6 °F /  19.2 °C 36.5 °F /  2.5 °C 30.2in /  1021.7hPa South 2.9mph /  4.7km/h 2.3mph /  3.7km/h 33% 0in /  0.0mm CLR
11:25 66.9 °F /  19.4 °C 36.9 °F /  2.7 °C 30.2in /  1021.7hPa SSW 2.9mph /  4.7km/h 2.3mph /  3.7km/h 33% 0in /  0.0mm CLR
11:30 67.5 °F /  19.7 °C 36.7 °F /  2.6 °C 30.2in /  1021.7hPa SW 2mph /  3.2km/h 4.6mph /  7.4km/h 32% 0in /  0.0mm CLR
11:35 68.2 °F /  20.1 °C 36.3 °F /  2.4 °C 30.2in /  1021.5hPa SSW 2mph /  3.2km/h 4mph /  6.4km/h 31% 0in /  0.0mm CLR
11:40 68.5 °F /  20.3 °C 36.7 °F /  2.6 °C 30.2in /  1021.5hPa ESE 2.4mph /  3.9km/h 4.6mph /  7.4km/h 31% 0in /  0.0mm CLR
11:45 69.4 °F /  20.8 °C 36.7 °F /  2.6 °C 30.2in /  1021.5hPa South 2.4mph /  3.9km/h 4.6mph /  7.4km/h 30% 0in /  0.0mm CLR
11:50 70 °F /  21.1 °C 37 °F /  2.8 °C 30.2in /  1021.3hPa SE 2.4mph /  3.9km/h 3.5mph /  5.6km/h 30% 0in /  0.0mm CLR
11:55 70.5 °F /  21.4 °C 36.7 °F /  2.6 °C 30.2in /  1021.3hPa ENE 2.4mph /  3.9km/h 3.5mph /  5.6km/h 29% 0in /  0.0mm CLR
12:00 70.7 °F /  21.5 °C 36.9 °F /  2.7 °C 30.2in /  1021.3hPa East 2mph /  3.2km/h 5mph /  8.0km/h 29% 0in /  0.0mm CLR
12:05 70.5 °F /  21.4 °C 36.7 °F /  2.6 °C 30.2in /  1021.2hPa ENE 2.4mph /  3.9km/h 4.6mph /  7.4km/h 29% 0in /  0.0mm CLR
12:10 70.7 °F /  21.5 °C 36 °F /  2.2 °C 30.2in /  1021.2hPa North 2.9mph /  4.7km/h 4.6mph /  7.4km/h 28% 0in /  0.0mm CLR
12:15 70.9 °F /  21.6 °C 36.1 °F /  2.3 °C 30.2in /  1021.2hPa WSW 2.9mph /  4.7km/h 2.3mph /  3.7km/h 28% 0in /  0.0mm CLR
12:20 71.2 °F /  21.8 °C 36.3 °F /  2.4 °C 30.2in /  1020.9hPa NNE 2mph /  3.2km/h 4.6mph /  7.4km/h 28% 0in /  0.0mm CLR
12:25 71.6 °F /  22.0 °C 36.9 °F /  2.7 °C 30.2in /  1020.9hPa North 2mph /  3.2km/h 3.5mph /  5.6km/h 28% 0in /  0.0mm CLR
12:30 71.8 °F /  22.1 °C 36.9 °F /  2.7 °C 30.2in /  1020.9hPa North 2.4mph /  3.9km/h 2.3mph /  3.7km/h 28% 0in /  0.0mm CLR
12:35 72.1 °F /  22.3 °C 37.2 °F /  2.9 °C 30.1in /  1020.7hPa North 2.4mph /  3.9km/h 2.3mph /  3.7km/h 28% 0in /  0.0mm CLR
12:40 72.7 °F /  22.6 °C 36.9 °F /  2.7 °C 30.1in /  1020.7hPa North 1.4mph /  2.3km/h 3.5mph /  5.6km/h 27% 0in /  0.0mm CLR
12:45 73.8 °F /  23.2 °C 37.8 °F /  3.2 °C 30.1in /  1020.7hPa North 1.4mph /  2.3km/h   27% 0in /  0.0mm CLR
12:50 74.5 °F /  23.6 °C 38.3 °F /  3.5 °C 30.1in /  1020.5hPa East 1.4mph /  2.3km/h 3.5mph /  5.6km/h 27% 0in /  0.0mm CLR
12:55 74.7 °F /  23.7 °C 38.5 °F /  3.6 °C 30.1in /  1020.5hPa NW 1.4mph /  2.3km/h 5.8mph /  9.3km/h 27% 0in /  0.0mm CLR
13:00 74.5 °F /  23.6 °C 38.3 °F /  3.5 °C 30.1in /  1020.5hPa NNW 3mph /  4.8km/h 6mph /  9.7km/h 27% 0in /  0.0mm CLR
13:05 74.5 °F /  23.6 °C 38.3 °F /  3.5 °C 30.1in /  1020.1hPa NNE 3.1mph /  5.0km/h 3.6mph /  5.8km/h 27% 0in /  0.0mm CLR
13:10 74.8 °F /  23.8 °C 37.6 °F /  3.1 °C 30.1in /  1020.1hPa NNW 2.9mph /  4.7km/h 4.6mph /  7.4km/h 26% 0in /  0.0mm CLR
13:15 75 °F /  23.9 °C 36.9 °F /  2.7 °C 30.1in /  1020.1hPa East 2.9mph /  4.7km/h 4mph /  6.4km/h 25% 0in /  0.0mm CLR
13:20 75.6 °F /  24.2 °C 38.1 °F /  3.4 °C 30.1in /  1019.7hPa ENE 2.9mph /  4.7km/h 5.8mph /  9.3km/h 26% 0in /  0.0mm CLR
13:25 75.9 °F /  24.4 °C 37.6 °F /  3.1 °C 30.1in /  1019.7hPa NE 2.9mph /  4.7km/h 6.9mph /  11.1km/h 25% 0in /  0.0mm CLR
13:30 75.9 °F /  24.4 °C 37.6 °F /  3.1 °C 30.1in /  1019.7hPa NNE 4.3mph /  6.9km/h 5.8mph /  9.3km/h 25% 0in /  0.0mm CLR
13:35 76.1 °F /  24.5 °C 36.7 °F /  2.6 °C 30.1in /  1019.4hPa NE 4.3mph /  6.9km/h 5.8mph /  9.3km/h 24% 0in /  0.0mm CLR
13:40 76.3 °F /  24.6 °C 36.9 °F /  2.7 °C 30.1in /  1019.4hPa North 4mph /  6.4km/h 5.8mph /  9.3km/h 24% 0in /  0.0mm CLR
13:45 77 °F /  25.0 °C 37.4 °F /  3.0 °C 30.1in /  1019.4hPa NW 4mph /  6.4km/h 2.9mph /  4.7km/h 24% 0in /  0.0mm CLR
13:50 77.4 °F /  25.2 °C 36.7 °F /  2.6 °C 30.1in /  1018.9hPa NE 2.4mph /  3.9km/h 9.7mph /  15.6km/h 23% 0in /  0.0mm CLR
13:55 77.5 °F /  25.3 °C 35.8 °F /  2.1 °C 30.1in /  1018.9hPa NNE 2.4mph /  3.9km/h 9.2mph /  14.8km/h 22% 0in /  0.0mm CLR
14:00 77.5 °F /  25.3 °C 34.5 °F /  1.4 °C 30.1in /  1018.9hPa ENE 5mph /  8.0km/h 9mph /  14.5km/h 21% 0in /  0.0mm CLR
14:05 78.1 °F /  25.6 °C 35.1 °F /  1.7 °C 30.1in /  1018.7hPa ENE 4.3mph /  6.9km/h 11.4mph /  18.3km/h 21% 0in /  0.0mm CLR
14:10 78.1 °F /  25.6 °C 33.6 °F /  0.9 °C 30.1in /  1018.7hPa East 3.6mph /  5.8km/h 8.1mph /  13.0km/h 20% 0in /  0.0mm CLR
14:15 78.1 °F /  25.6 °C 29.7 °F /  -1.3 °C 30.1in /  1018.7hPa ESE 3.6mph /  5.8km/h 10.4mph /  16.7km/h 17% 0in /  0.0mm CLR
14:20 78.4 °F /  25.8 °C 31.5 °F /  -0.3 °C 30.1in /  1018.4hPa ESE 5.9mph /  9.5km/h 9.2mph /  14.8km/h 18% 0in /  0.0mm CLR
14:25 78.4 °F /  25.8 °C 30 °F /  -1.1 °C 30.1in /  1018.4hPa ESE 5.9mph /  9.5km/h 6.9mph /  11.1km/h 17% 0in /  0.0mm CLR
14:30 78.6 °F /  25.9 °C 30 °F /  -1.1 °C 30.1in /  1018.4hPa ESE 5.9mph /  9.5km/h 11.5mph /  18.5km/h 17% 0in /  0.0mm CLR
14:35 79 °F /  26.1 °C 30.4 °F /  -0.9 °C 30.1in /  1018.2hPa East 5.9mph /  9.5km/h 9.2mph /  14.8km/h 17% 0in /  0.0mm CLR
14:40 79 °F /  26.1 °C 30.4 °F /  -0.9 °C 30.1in /  1018.2hPa ESE 5.9mph /  9.5km/h 13.8mph /  22.2km/h 17% 0in /  0.0mm CLR
14:45 79 °F /  26.1 °C 28.9 °F /  -1.7 °C 30.1in /  1018.2hPa ESE 5.9mph /  9.5km/h 9.2mph /  14.8km/h 16% 0in /  0.0mm CLR
14:50 79.2 °F /  26.2 °C 32 °F /  0.0 °C 30.1in /  1017.9hPa SE 7.6mph /  12.2km/h 10.4mph /  16.7km/h 18% 0in /  0.0mm CLR
14:55 79 °F /  26.1 °C 31.8 °F /  -0.1 °C 30.1in /  1017.9hPa ESE 7.6mph /  12.2km/h 12.7mph /  20.4km/h 18% 0in /  0.0mm CLR
15:00 78.6 °F /  25.9 °C 30 °F /  -1.1 °C 30.1in /  1017.9hPa SE 9mph /  14.5km/h 13mph /  20.9km/h 17% 0in /  0.0mm CLR
15:05 78.6 °F /  25.9 °C 32.9 °F /  0.5 °C 30.1in /  1017.7hPa ESE 8.7mph /  14.0km/h 11.4mph /  18.3km/h 19% 0in /  0.0mm CLR
15:10 78.6 °F /  25.9 °C 32.9 °F /  0.5 °C 30.1in /  1017.7hPa ESE 8.1mph /  13.0km/h 16.1mph /  25.9km/h 19% 0in /  0.0mm CLR
15:15 78.4 °F /  25.8 °C 31.5 °F /  -0.3 °C 30.1in /  1017.7hPa ESE 8.1mph /  13.0km/h 10.4mph /  16.7km/h 18% 0in /  0.0mm CLR
15:20 78.6 °F /  25.9 °C 32.9 °F /  0.5 °C 30.1in /  1017.5hPa ESE 8.5mph /  13.7km/h 16.1mph /  25.9km/h 19% 0in /  0.0mm CLR
15:25 78.4 °F /  25.8 °C 36.3 °F /  2.4 °C 30.1in /  1017.5hPa ESE 8.5mph /  13.7km/h 16.1mph /  25.9km/h 22% 0in /  0.0mm CLR
15:30 78.3 °F /  25.7 °C 37.4 °F /  3.0 °C 30.1in /  1017.5hPa ESE 9.7mph /  15.6km/h 10.4mph /  16.7km/h 23% 0in /  0.0mm CLR
15:35 78.4 °F /  25.8 °C 38.7 °F /  3.7 °C 30in /  1017.3hPa ESE 9.7mph /  15.6km/h 11.8mph /  19.0km/h 24% 0in /  0.0mm CLR
15:40 78.3 °F /  25.7 °C 39.6 °F /  4.2 °C 30in /  1017.3hPa ESE 8.1mph /  13.0km/h 13.8mph /  22.2km/h 25% 0in /  0.0mm CLR
15:45 77.7 °F /  25.4 °C 39 °F /  3.9 °C 30in /  1017.3hPa SE 8.1mph /  13.0km/h 15mph /  24.1km/h 25% 0in /  0.0mm CLR
15:50 77.7 °F /  25.4 °C 37.9 °F /  3.3 °C 30in /  1017.2hPa ESE 10mph /  16.1km/h 10.4mph /  16.7km/h 24% 0in /  0.0mm CLR
15:55 78.1 °F /  25.6 °C 38.3 °F /  3.5 °C 30in /  1017.2hPa ESE 10mph /  16.1km/h 11.5mph /  18.5km/h 24% 0in /  0.0mm CLR
16:00 78.1 °F /  25.6 °C 37.2 °F /  2.9 °C 30in /  1017.2hPa ESE 8mph /  12.9km/h 13mph /  20.9km/h 23% 0in /  0.0mm CLR
16:05 78.1 °F /  25.6 °C 37.2 °F /  2.9 °C 30in /  1017.1hPa SE 8.5mph /  13.7km/h 13.8mph /  22.2km/h 23% 0in /  0.0mm CLR
16:10 78.3 °F /  25.7 °C 37.4 °F /  3.0 °C 30in /  1017.1hPa SE 8.5mph /  13.7km/h 15mph /  24.1km/h 23% 0in /  0.0mm CLR
16:15 77.9 °F /  25.5 °C 37 °F /  2.8 °C 30in /  1017.1hPa ESE 8.5mph /  13.7km/h 13.8mph /  22.2km/h 23% 0in /  0.0mm CLR
16:20 78.1 °F /  25.6 °C 37.2 °F /  2.9 °C 30in /  1017.0hPa SE 8.7mph /  14.0km/h 13.8mph /  22.2km/h 23% 0in /  0.0mm CLR
16:25 77.7 °F /  25.4 °C 35.8 °F /  2.1 °C 30in /  1017.0hPa ESE 8.7mph /  14.0km/h 16.1mph /  25.9km/h 22% 0in /  0.0mm CLR
16:30 77.7 °F /  25.4 °C 35.8 °F /  2.1 °C 30in /  1017.0hPa East 9.7mph /  15.6km/h 15mph /  24.1km/h 22% 0in /  0.0mm CLR
16:35 77.5 °F /  25.3 °C 35.8 °F /  2.1 °C 30in /  1016.9hPa ESE 9.7mph /  15.6km/h 15mph /  24.1km/h 22% 0in /  0.0mm CLR
16:40 77.5 °F /  25.3 °C 35.8 °F /  2.1 °C 30in /  1016.9hPa ESE 9.7mph /  15.6km/h 15mph /  24.1km/h 22% 0in /  0.0mm CLR
16:45 77.5 °F /  25.3 °C 35.8 °F /  2.1 °C 30in /  1016.9hPa ESE 9.7mph /  15.6km/h 11.5mph /  18.5km/h 22% 0in /  0.0mm CLR
16:50 77.5 °F /  25.3 °C 35.8 °F /  2.1 °C 30in /  1016.7hPa ESE 9.2mph /  14.8km/h 11.5mph /  18.5km/h 22% 0in /  0.0mm CLR
16:55 77.7 °F /  25.4 °C 34.7 °F /  1.5 °C 30in /  1016.7hPa SE 9.2mph /  14.8km/h 10.4mph /  16.7km/h 21% 0in /  0.0mm CLR
17:00 77.5 °F /  25.3 °C 35.8 °F /  2.1 °C 30in /  1016.7hPa ESE 8mph /  12.9km/h 16mph /  25.7km/h 22% 0in /  0.0mm CLR
17:05 77 °F /  25.0 °C 35.2 °F /  1.8 °C 30in /  1016.6hPa ESE 8.5mph /  13.7km/h 17.3mph /  27.8km/h 22% 0in /  0.0mm CLR
17:10 76.6 °F /  24.8 °C 34.9 °F /  1.6 °C 30in /  1016.6hPa SE 10mph /  16.1km/h 11.5mph /  18.5km/h 22% 0in /  0.0mm CLR
17:15 76.8 °F /  24.9 °C 35.1 °F /  1.7 °C 30in /  1016.6hPa SE 10mph /  16.1km/h 13.8mph /  22.2km/h 22% 0in /  0.0mm CLR
17:20 76.8 °F /  24.9 °C 35.1 °F /  1.7 °C 30in /  1016.6hPa ESE 9.2mph /  14.8km/h 11.5mph /  18.5km/h 22% 0in /  0.0mm CLR
17:25 76.8 °F /  24.9 °C 35.1 °F /  1.7 °C 30in /  1016.6hPa SE 9.2mph /  14.8km/h 13.8mph /  22.2km/h 22% 0in /  0.0mm CLR
17:30 76.5 °F /  24.7 °C 36 °F /  2.2 °C 30in /  1016.6hPa SE 8.5mph /  13.7km/h 10.4mph /  16.7km/h 23% 0in /  0.0mm CLR
17:35 76.3 °F /  24.6 °C 35.8 °F /  2.1 °C 30in /  1016.6hPa SE 8.5mph /  13.7km/h 12.7mph /  20.4km/h 23% 0in /  0.0mm CLR
17:40 76.1 °F /  24.5 °C 35.6 °F /  2.0 °C 30in /  1016.6hPa East 8.5mph /  13.7km/h 15mph /  24.1km/h 23% 0in /  0.0mm CLR
17:45 75.9 °F /  24.4 °C 35.4 °F /  1.9 °C 30in /  1016.6hPa SE 8.5mph /  13.7km/h 12.7mph /  20.4km/h 23% 0in /  0.0mm CLR
17:50 75.6 °F /  24.2 °C 36.1 °F /  2.3 °C 30in /  1016.6hPa ESE 10mph /  16.1km/h 15mph /  24.1km/h 24% 0in /  0.0mm CLR
17:55 75.4 °F /  24.1 °C 36.1 °F /  2.3 °C 30in /  1016.6hPa East 10mph /  16.1km/h 13.8mph /  22.2km/h 24% 0in /  0.0mm CLR
18:00 75.2 °F /  24.0 °C 36 °F /  2.2 °C 30in /  1016.6hPa ESE 9mph /  14.5km/h 14mph /  22.5km/h 24% 0in /  0.0mm CLR
18:05 74.8 °F /  23.8 °C 35.6 °F /  2.0 °C 30in /  1016.5hPa SE 9.2mph /  14.8km/h 16.1mph /  25.9km/h 24% 0in /  0.0mm CLR
18:10 74.7 °F /  23.7 °C 36.5 °F /  2.5 °C 30in /  1016.5hPa SE 10mph /  16.1km/h 13.8mph /  22.2km/h 25% 0in /  0.0mm CLR
18:15 74.5 °F /  23.6 °C 36.3 °F /  2.4 °C 30in /  1016.5hPa SE 10mph /  16.1km/h 12.7mph /  20.4km/h 25% 0in /  0.0mm CLR
18:20 74.3 °F /  23.5 °C 36.1 °F /  2.3 °C 30in /  1016.5hPa SSE 9.2mph /  14.8km/h 11.5mph /  18.5km/h 25% 0in /  0.0mm CLR
18:25 73.8 °F /  23.2 °C 36.7 °F /  2.6 °C 30in /  1016.5hPa ESE 9.2mph /  14.8km/h 11.5mph /  18.5km/h 26% 0in /  0.0mm CLR
18:30 73.6 °F /  23.1 °C 36.7 °F /  2.6 °C 30in /  1016.5hPa ESE 7.6mph /  12.2km/h 10.4mph /  16.7km/h 26% 0in /  0.0mm CLR
18:35 73.2 °F /  22.9 °C 35.2 °F /  1.8 °C 30in /  1016.5hPa SE 7.6mph /  12.2km/h 8.1mph /  13.0km/h 25% 0in /  0.0mm CLR
18:40 73 °F /  22.8 °C 34.2 °F /  1.2 °C 30in /  1016.5hPa SE 6.4mph /  10.3km/h 9.2mph /  14.8km/h 24% 0in /  0.0mm CLR
18:45 73 °F /  22.8 °C 31.8 °F /  -0.1 °C 30in /  1016.5hPa ESE 6.4mph /  10.3km/h 12.3mph /  19.8km/h 22% 0in /  0.0mm CLR
18:50 72.9 °F /  22.7 °C 31.8 °F /  -0.1 °C 30in /  1016.6hPa ESE 6.2mph /  10.0km/h 11.5mph /  18.5km/h 22% 0in /  0.0mm CLR
18:55 72.3 °F /  22.4 °C 31.3 °F /  -0.4 °C 30in /  1016.6hPa SE 6.2mph /  10.0km/h 9.2mph /  14.8km/h 22% 0in /  0.0mm CLR
19:00 72.1 °F /  22.3 °C 31.1 °F /  -0.5 °C 30in /  1016.6hPa ESE 7mph /  11.3km/h 11mph /  17.7km/h 22% 0in /  0.0mm CLR
19:05 71.8 °F /  22.1 °C 29.7 °F /  -1.3 °C 30in /  1016.6hPa SE 6.9mph /  11.1km/h 8.1mph /  13.0km/h 21% 0in /  0.0mm CLR
19:10 71.4 °F /  21.9 °C 29.5 °F /  -1.4 °C 30in /  1016.6hPa ESE 6.2mph /  10.0km/h 8.1mph /  13.0km/h 21% 0in /  0.0mm CLR
19:15 71.1 °F /  21.7 °C 27.9 °F /  -2.3 °C 30in /  1016.6hPa ESE 6.2mph /  10.0km/h 7.6mph /  12.2km/h 20% 0in /  0.0mm CLR
19:20 70.7 °F /  21.5 °C 28.8 °F /  -1.8 °C 30in /  1016.7hPa ESE 5.4mph /  8.7km/h 8.1mph /  13.0km/h 21% 0in /  0.0mm CLR
19:25 70.5 °F /  21.4 °C 28.8 °F /  -1.8 °C 30in /  1016.7hPa ESE 5.4mph /  8.7km/h 8.7mph /  14.0km/h 21% 0in /  0.0mm CLR
19:30 70.3 °F /  21.3 °C 29.7 °F /  -1.3 °C 30in /  1016.7hPa ESE 5.9mph /  9.5km/h 6.9mph /  11.1km/h 22% 0in /  0.0mm CLR
19:35 70.3 °F /  21.3 °C 30.7 °F /  -0.7 °C 30in /  1016.8hPa ESE 5.9mph /  9.5km/h 8.1mph /  13.0km/h 23% 0in /  0.0mm CLR
19:40 70 °F /  21.1 °C 31.5 °F /  -0.3 °C 30in /  1016.8hPa ESE 5.4mph /  8.7km/h 5.8mph /  9.3km/h 24% 0in /  0.0mm CLR
19:45 69.6 °F /  20.9 °C 32.2 °F /  0.1 °C 30in /  1016.8hPa ENE 5.4mph /  8.7km/h 3.6mph /  5.8km/h 25% 0in /  0.0mm CLR
19:50 69.3 °F /  20.7 °C 33.8 °F /  1.0 °C 30in /  1016.8hPa NNW 3.1mph /  5.0km/h 6.9mph /  11.1km/h 27% 0in /  0.0mm CLR
19:55 68.4 °F /  20.2 °C 36.5 °F /  2.5 °C 30in /  1016.8hPa NNW 3.1mph /  5.0km/h 6.9mph /  11.1km/h 31% 0in /  0.0mm CLR
20:00 67.6 °F /  19.8 °C 37.4 °F /  3.0 °C 30in /  1016.8hPa NNE 3mph /  4.8km/h 9mph /  14.5km/h 33% 0in /  0.0mm CLR
20:05 66.6 °F /  19.2 °C 37.9 °F /  3.3 °C 30in /  1016.9hPa NE 3.6mph /  5.8km/h 6.9mph /  11.1km/h 35% 0in /  0.0mm CLR
20:10 66 °F /  18.9 °C 38.3 °F /  3.5 °C 30in /  1016.9hPa North 5.2mph /  8.4km/h 6.9mph /  11.1km/h 36% 0in /  0.0mm CLR
20:15 65.5 °F /  18.6 °C 38.5 °F /  3.6 °C 30in /  1016.9hPa ENE 5.2mph /  8.4km/h 5.4mph /  8.7km/h 37% 0in /  0.0mm CLR
20:20 65.1 °F /  18.4 °C 37.6 °F /  3.1 °C 30in /  1016.9hPa NE 4.7mph /  7.6km/h 8.1mph /  13.0km/h 36% 0in /  0.0mm CLR
20:25 64.9 °F /  18.3 °C 37.9 °F /  3.3 °C 30in /  1016.9hPa NNE 4.7mph /  7.6km/h 8.1mph /  13.0km/h 37% 0in /  0.0mm CLR
20:30 64.8 °F /  18.2 °C 38.5 °F /  3.6 °C 30in /  1016.9hPa North 5.4mph /  8.7km/h 5.8mph /  9.3km/h 38% 0in /  0.0mm CLR
20:35 64.4 °F /  18.0 °C 38.8 °F /  3.8 °C 30in /  1017.2hPa West 5.4mph /  8.7km/h 8.1mph /  13.0km/h 39% 0in /  0.0mm CLR
20:40 63.7 °F /  17.6 °C 39.6 °F /  4.2 °C 30in /  1017.2hPa North 4.7mph /  7.6km/h 6.9mph /  11.1km/h 41% 0in /  0.0mm CLR
20:45 63.3 °F /  17.4 °C 40.5 °F /  4.7 °C 30in /  1017.2hPa NNE 4.7mph /  7.6km/h 4.6mph /  7.4km/h 43% 0in /  0.0mm CLR
20:50 63 °F /  17.2 °C 40.6 °F /  4.8 °C 30in /  1017.3hPa NNE 3.6mph /  5.8km/h 4.7mph /  7.6km/h 44% 0in /  0.0mm CLR
20:55 62.4 °F /  16.9 °C 40.8 °F /  4.9 °C 30in /  1017.3hPa NNW 3.6mph /  5.8km/h 4.6mph /  7.4km/h 45% 0in /  0.0mm CLR
21:00 62.2 °F /  16.8 °C 41.2 °F /  5.1 °C 30in /  1017.3hPa North 2mph /  3.2km/h 6mph /  9.7km/h 46% 0in /  0.0mm CLR
21:05 61.9 °F /  16.6 °C 41.4 °F /  5.2 °C 30in /  1017.4hPa NW 2.9mph /  4.7km/h 4.6mph /  7.4km/h 47% 0in /  0.0mm CLR
21:10 61.7 °F /  16.5 °C 41.7 °F /  5.4 °C 30in /  1017.4hPa NE 2.9mph /  4.7km/h 4.6mph /  7.4km/h 48% 0in /  0.0mm CLR
21:15 61.3 °F /  16.3 °C 42.4 °F /  5.8 °C 30in /  1017.4hPa NE 2.9mph /  4.7km/h 6.9mph /  11.1km/h 50% 0in /  0.0mm CLR
21:20 61 °F /  16.1 °C 42.6 °F /  5.9 °C 30in /  1017.4hPa NNE 4.7mph /  7.6km/h 8.1mph /  13.0km/h 51% 0in /  0.0mm CLR
21:25 60.6 °F /  15.9 °C 43.9 °F /  6.6 °C 30in /  1017.4hPa NNE 4.7mph /  7.6km/h 8.1mph /  13.0km/h 54% 0in /  0.0mm CLR
21:30 60.3 °F /  15.7 °C 44.4 °F /  6.9 °C 30in /  1017.4hPa North 5.9mph /  9.5km/h 8.1mph /  13.0km/h 56% 0in /  0.0mm CLR
21:35 59.7 °F /  15.4 °C 44.4 °F /  6.9 °C 30.1in /  1017.5hPa NE 5.9mph /  9.5km/h 8.1mph /  13.0km/h 57% 0in /  0.0mm CLR
21:40 59.5 °F /  15.3 °C 45.1 °F /  7.3 °C 30.1in /  1017.5hPa North 4.7mph /  7.6km/h 5.8mph /  9.3km/h 59% 0in /  0.0mm CLR
21:45 59.2 °F /  15.1 °C 45.3 °F /  7.4 °C 30.1in /  1017.5hPa NNE 4.7mph /  7.6km/h 6.9mph /  11.1km/h 60% 0in /  0.0mm CLR
21:50 58.8 °F /  14.9 °C 45.3 °F /  7.4 °C 30.1in /  1017.6hPa NE 4.3mph /  6.9km/h 5.8mph /  9.3km/h 61% 0in /  0.0mm CLR
21:55 58.6 °F /  14.8 °C 45.7 °F /  7.6 °C 30.1in /  1017.6hPa NE 4.3mph /  6.9km/h 6.2mph /  10.0km/h 62% 0in /  0.0mm CLR
22:00 58.6 °F /  14.8 °C 46.4 °F /  8.0 °C 30.1in /  1017.6hPa NNE 3mph /  4.8km/h 7mph /  11.3km/h 64% 0in /  0.0mm CLR
22:05 58.5 °F /  14.7 °C 46.2 °F /  7.9 °C 30.1in /  1017.7hPa NE 3.6mph /  5.8km/h 5.8mph /  9.3km/h 64% 0in /  0.0mm CLR
22:10 58.5 °F /  14.7 °C 46.2 °F /  7.9 °C 30.1in /  1017.7hPa NNE 4mph /  6.4km/h 5.8mph /  9.3km/h 64% 0in /  0.0mm CLR
22:15 58.3 °F /  14.6 °C 46.6 °F /  8.1 °C 30.1in /  1017.7hPa NNE 4mph /  6.4km/h 3.5mph /  5.6km/h 65% 0in /  0.0mm CLR
22:20 58.3 °F /  14.6 °C 46.9 °F /  8.3 °C 30.1in /  1017.8hPa NNE 3.1mph /  5.0km/h 2.3mph /  3.7km/h 66% 0in /  0.0mm CLR
22:25 58.1 °F /  14.5 °C 46.8 °F /  8.2 °C 30.1in /  1017.8hPa NNE 3.1mph /  5.0km/h 2.3mph /  3.7km/h 66% 0in /  0.0mm CLR
22:30 58.3 °F /  14.6 °C 47.5 °F /  8.6 °C 30.1in /  1017.8hPa NE 1.8mph /  2.9km/h 4.6mph /  7.4km/h 67% 0in /  0.0mm CLR
22:35 58.3 °F /  14.6 °C 47.5 °F /  8.6 °C 30.1in /  1017.7hPa NE 1.8mph /  2.9km/h 3.5mph /  5.6km/h 67% 0in /  0.0mm CLR
22:40 58.3 °F /  14.6 °C 47.5 °F /  8.6 °C 30.1in /  1017.7hPa NE 2mph /  3.2km/h 2.3mph /  3.7km/h 67% 0in /  0.0mm CLR
22:45 58.3 °F /  14.6 °C 47.5 °F /  8.6 °C 30.1in /  1017.7hPa NE 2mph /  3.2km/h 3.5mph /  5.6km/h 67% 0in /  0.0mm CLR
22:50 58.3 °F /  14.6 °C 47.5 °F /  8.6 °C 30.1in /  1017.7hPa NE 1.8mph /  2.9km/h 3.5mph /  5.6km/h 67% 0in /  0.0mm CLR
22:55 58.3 °F /  14.6 °C 47.8 °F /  8.8 °C 30.1in /  1017.7hPa NE 1.8mph /  2.9km/h 2.9mph /  4.7km/h 68% 0in /  0.0mm CLR
23:00 58.3 °F /  14.6 °C 47.8 °F /  8.8 °C 30.1in /  1017.7hPa NE 2mph /  3.2km/h 4mph /  6.4km/h 68% 0in /  0.0mm CLR
23:05 58.1 °F /  14.5 °C 48 °F /  8.9 °C 30.1in /  1017.5hPa NE 1.8mph /  2.9km/h 3.5mph /  5.6km/h 69% 0in /  0.0mm CLR
23:10 58.1 °F /  14.5 °C 48 °F /  8.9 °C 30.1in /  1017.5hPa NE 2mph /  3.2km/h 2.3mph /  3.7km/h 69% 0in /  0.0mm CLR
23:15 57.9 °F /  14.4 °C 47.8 °F /  8.8 °C 30.1in /  1017.5hPa NE 2mph /  3.2km/h 2.3mph /  3.7km/h 69% 0in /  0.0mm CLR
23:20 57.9 °F /  14.4 °C 47.8 °F /  8.8 °C 30in /  1017.4hPa NE 1.8mph /  2.9km/h 1.2mph /  1.9km/h 69% 0in /  0.0mm CLR
23:25 57.7 °F /  14.3 °C 47.1 °F /  8.4 °C 30in /  1017.4hPa NE 1.8mph /  2.9km/h 2.4mph /  3.9km/h 68% 0in /  0.0mm CLR
23:30 57.7 °F /  14.3 °C 46.9 °F /  8.3 °C 30in /  1017.4hPa NE 1.8mph /  2.9km/h 2.3mph /  3.7km/h 67% 0in /  0.0mm CLR
23:35 57.4 °F /  14.1 °C 46.6 °F /  8.1 °C 30in /  1017.4hPa NE 1.8mph /  2.9km/h 2.3mph /  3.7km/h 67% 0in /  0.0mm CLR
23:40 57.4 °F /  14.1 °C 46 °F /  7.8 °C 30in /  1017.4hPa NE 1.4mph /  2.3km/h 2.9mph /  4.7km/h 66% 0in /  0.0mm CLR
23:45 57.2 °F /  14.0 °C 45.9 °F /  7.7 °C 30in /  1017.4hPa NE 1.4mph /  2.3km/h 3.5mph /  5.6km/h 66% 0in /  0.0mm CLR
23:50 57 °F /  13.9 °C 45.3 °F /  7.4 °C 30in /  1017.3hPa NE 2mph /  3.2km/h 2.3mph /  3.7km/h 65% 0in /  0.0mm CLR
23:55 57 °F /  13.9 °C 45.3 °F /  7.4 °C 30in /  1017.3hPa NE 2mph /  3.2km/h 2.3mph /  3.7km/h 65% 0in /  0.0mm CLR
Murcia-Puente Tocinos, España
Compliments of Weather Underground - 2.75 mb

La estación de MeteoMurcia.com, publica sus datos en los siguientes proyectos:

Weather Underground PWS IMURCIAP2 Meteoclimatic www.awekas.at

W3Counter
Web Analytics